Time;durP1;ratioP1;P1;durP2;ratioP2;P2;SDS_P1;SDS_P2;PMS_P1;PMS_P2;Temp;Humidity;BMP_temperature;BMP_pressure;BME280_temperature;BME280_humidity;BME280_pressure;Samples;Min_cycle;Max_cycle;Signal;HPM_P1;HPM_P2
2022/05/29 00:01:51;;;;;;;442.02;421.25;;;12.90;99.90;;;12.93;70.97;99238.63;4993290;28;20204;-75
2022/05/29 00:04:19;;;;;;;447.42;427.00;;;12.90;99.90;;;12.82;71.11;99230.88;4987579;28;20228;-77
2022/05/29 00:06:52;;;;;;;466.00;442.88;;;12.80;99.90;;;12.80;71.04;99240.63;4997581;28;20209;-75
2022/05/29 00:09:33;;;;;;;449.33;427.70;;;12.80;99.90;;;12.71;71.65;99246.13;4996211;28;20236;-75
2022/05/29 00:12:04;;;;;;;442.92;421.40;;;12.70;99.90;;;12.68;71.43;99251.47;5003381;28;20219;-75
2022/05/29 00:14:34;;;;;;;437.02;416.98;;;12.70;99.90;;;12.65;72.01;99262.13;5005560;28;20224;-74
2022/05/29 00:17:04;;;;;;;446.83;425.67;;;12.70;99.90;;;12.64;72.03;99260.38;5004252;28;20208;-75
2022/05/29 00:19:32;;;;;;;436.75;416.27;;;12.60;99.90;;;12.64;71.94;99265.69;4988818;28;20218;-78
2022/05/29 00:22:02;;;;;;;461.25;438.48;;;12.60;99.90;;;12.53;72.08;99265.00;4992866;28;20238;-76
2022/05/29 00:24:31;;;;;;;454.70;432.33;;;12.50;99.90;;;12.58;72.36;99290.53;4990025;28;20220;-74
2022/05/29 00:26:59;;;;;;;463.25;440.05;;;12.50;99.90;;;12.55;72.43;99295.91;4986105;28;20219;-75
2022/05/29 00:29:27;;;;;;;470.45;446.80;;;12.50;99.90;;;12.52;72.27;99293.31;5002578;28;20607;-74
2022/05/29 00:31:55;;;;;;;464.58;441.42;;;12.40;99.90;;;12.46;72.46;99296.94;4997612;28;20575;-74
2022/05/29 00:34:23;;;;;;;478.52;453.73;;;12.40;99.90;;;12.51;72.50;99304.81;4993942;28;20259;-74
2022/05/29 00:36:51;;;;;;;477.48;454.13;;;12.40;99.90;;;12.52;72.81;99313.63;5001564;28;20289;-75
2022/05/29 00:39:19;;;;;;;490.88;466.20;;;12.40;99.90;;;12.48;73.50;99323.44;5006596;28;20715;-75
2022/05/29 00:41:47;;;;;;;458.25;435.13;;;12.30;99.90;;;12.43;73.22;99312.03;5005121;28;20253;-78
2022/05/29 00:44:28;;;;;;;431.52;411.92;;;12.30;99.90;;;12.40;73.00;99312.06;4997224;28;20246;-76
2022/05/29 00:47:00;;;;;;;434.85;413.92;;;12.30;99.90;;;12.30;72.81;99308.69;5003795;28;20680;-79
2022/05/29 00:49:32;;;;;;;429.42;408.98;;;12.30;99.90;;;12.36;73.09;99313.91;4997477;28;20235;-74
2022/05/29 00:52:05;;;;;;;425.83;406.38;;;12.20;99.90;;;12.42;72.89;99327.06;5001714;28;20204;-76
2022/05/29 00:54:44;;;;;;;413.83;395.08;;;12.20;99.90;;;12.34;72.53;99322.78;5013787;28;20224;-76
2022/05/29 00:57:17;;;;;;;443.77;420.60;;;12.20;99.90;;;12.29;72.80;99320.19;4995029;28;20211;-75
2022/05/29 00:59:46;;;;;;;462.23;438.90;;;12.20;99.90;;;12.31;72.79;99329.00;5007248;28;20208;-75
2022/05/29 01:02:14;;;;;;;463.15;440.63;;;12.20;99.90;;;12.27;72.94;99319.34;5003066;28;20700;-74
2022/05/29 01:04:42;;;;;;;468.05;443.90;;;12.20;99.90;;;12.25;72.48;99318.50;5002563;28;20220;-74
2022/05/29 01:07:14;;;;;;;468.55;445.23;;;12.10;99.90;;;12.18;73.18;99328.31;5007270;28;20219;-75
2022/05/29 01:09:46;;;;;;;466.33;442.58;;;12.10;99.90;;;12.14;73.19;99321.31;5007445;28;20224;-74
2022/05/29 01:12:45;;;;;;;467.20;442.30;;;12.10;99.90;;;12.15;73.67;99338.09;5001868;28;20209;-74
2022/05/29 01:15:47;;;;;;;426.05;405.05;;;12.00;99.90;;;12.17;73.61;99349.53;4998158;28;20728;-75
2022/05/29 01:19:02;;;;;;;432.73;411.50;;;12.00;99.90;;;12.10;73.76;99348.75;5008965;28;20204;-76
2022/05/29 01:21:50;;;;;;;424.50;403.77;;;12.00;99.90;;;11.98;73.57;99337.44;5008567;28;20215;-74
2022/05/29 01:24:45;;;;;;;431.10;409.48;;;12.00;99.90;;;11.89;74.00;99329.63;4992991;28;20589;-74
2022/05/29 01:27:54;;;;;;;430.15;408.88;;;11.90;99.90;;;11.93;74.07;99347.25;5006358;28;20204;-75
2022/05/29 01:30:25;;;;;;;424.52;403.48;;;11.90;99.90;;;11.79;74.33;99340.34;5006488;28;20228;-74
2022/05/29 01:33:25;;;;;;;451.48;426.23;;;11.80;99.90;;;11.88;74.56;99352.59;5002909;28;20699;-76
2022/05/29 01:36:12;;;;;;;430.60;408.05;;;11.70;99.90;;;11.98;75.12;99382.50;5000763;28;20282;-75
2022/05/29 01:39:00;;;;;;;424.95;404.30;;;11.80;99.90;;;11.80;75.01;99373.00;5001944;28;20207;-76
2022/05/29 01:41:41;;;;;;;418.65;398.48;;;11.80;99.90;;;11.80;74.83;99371.25;4991881;28;20205;-74
2022/05/29 01:44:16;;;;;;;414.45;394.45;;;11.70;99.90;;;11.75;74.94;99377.47;4983189;28;20225;-76
2022/05/29 01:46:48;;;;;;;413.48;393.42;;;11.70;99.90;;;11.81;75.53;99398.59;4986539;28;20798;-75
2022/05/29 01:49:35;;;;;;;429.38;407.30;;;11.70;99.90;;;11.76;75.33;99392.47;5002940;28;20216;-74
2022/05/29 01:52:11;;;;;;;412.98;392.88;;;11.70;99.90;;;11.73;75.48;99395.16;4982460;28;20214;-74
2022/05/29 01:54:55;;;;;;;429.58;406.27;;;11.70;99.90;;;11.75;75.22;99399.53;4999155;28;20257;-75
2022/05/29 01:57:36;;;;;;;410.75;389.63;;;11.70;99.90;;;11.77;75.33;99411.00;5003414;28;20208;-74
2022/05/29 02:00:12;;;;;;;414.98;393.48;;;11.60;99.90;;;11.87;75.59;99429.44;5002331;28;20339;-74
2022/05/29 02:03:02;;;;;;;428.85;405.30;;;11.70;99.90;;;11.87;75.92;99447.97;5007659;28;20211;-75
2022/05/29 02:05:39;;;;;;;413.35;393.10;;;11.70;99.90;;;11.73;75.74;99438.41;5017989;28;20211;-74
2022/05/29 02:08:16;;;;;;;428.48;405.35;;;11.70;99.90;;;11.77;75.50;99436.59;4988888;28;20657;-74
2022/05/29 02:10:56;;;;;;;422.88;400.10;;;11.50;99.90;;;11.85;76.02;99462.13;5001526;28;20676;-74
2022/05/29 02:13:34;;;;;;;405.48;385.65;;;11.70;99.90;;;11.75;76.29;99444.56;5001573;28;20227;-76
2022/05/29 02:16:11;;;;;;;422.45;399.92;;;11.70;99.90;;;11.76;76.38;99463.97;4985432;28;20204;-74
2022/05/29 02:19:06;;;;;;;422.73;401.33;;;11.70;99.90;;;11.71;76.66;99461.38;5008087;28;20204;-74
2022/05/29 02:22:05;;;;;;;417.40;396.60;;;11.70;99.90;;;11.68;76.90;99463.16;4992479;28;20580;-75
2022/05/29 02:24:44;;;;;;;414.05;393.50;;;11.70;99.90;;;11.72;76.99;99479.03;4978079;28;20224;-79
2022/05/29 02:27:26;;;;;;;441.52;417.10;;;11.70;99.90;;;11.61;77.63;99469.41;5004257;28;20208;-74
2022/05/29 02:29:59;;;;;;;437.90;414.88;;;11.60;99.90;;;11.54;78.48;99480.06;4994246;28;20204;-74
2022/05/29 02:33:04;;;;;;;435.05;412.40;;;11.60;99.90;;;11.57;77.56;99476.50;4996615;28;20207;-75
2022/05/29 02:36:19;;;;;;;437.80;414.35;;;11.50;99.90;;;11.51;78.39;99498.63;5008025;28;20199;-74
2022/05/29 02:39:21;;;;;;;435.85;410.75;;;11.50;99.90;;;11.41;78.59;99489.00;4988976;28;20215;-76
2022/05/29 02:42:20;;;;;;;441.83;416.27;;;11.40;99.90;;;11.54;79.04;99516.25;4996939;28;20657;-74
2022/05/29 02:45:05;;;;;;;427.15;404.08;;;11.40;99.90;;;11.42;79.04;99511.06;5001863;28;20727;-74
2022/05/29 02:48:11;;;;;;;426.35;402.10;;;11.40;99.90;;;11.43;79.73;99520.75;5004815;28;20330;-74
2022/05/29 02:50:58;;;;;;;416.63;393.55;;;11.40;99.90;;;11.35;79.53;99530.53;5006740;28;20235;-76
2022/05/29 02:53:26;;;;;;;420.80;397.13;;;11.40;99.90;;;11.32;80.46;99534.09;5004869;28;20240;-76
2022/05/29 02:55:54;;;;;;;429.75;405.40;;;11.30;99.90;;;11.29;80.86;99539.41;4995012;28;20219;-75
2022/05/29 02:58:28;;;;;;;425.77;402.90;;;11.30;99.90;;;11.32;81.16;99546.44;5003091;28;20219;-77
2022/05/29 03:01:27;;;;;;;429.42;405.95;;;11.30;99.90;;;11.22;81.26;99551.81;4998434;28;20662;-74
2022/05/29 03:04:26;;;;;;;423.05;399.63;;;11.30;99.90;;;11.16;81.06;99545.69;4992512;28;20224;-75
2022/05/29 03:06:57;;;;;;;421.30;398.08;;;11.20;99.90;;;11.15;81.10;99554.53;5003246;28;20205;-74
2022/05/29 03:09:31;;;;;;;431.13;406.52;;;11.10;99.90;;;11.11;81.27;99553.66;5005974;28;20219;-75
2022/05/29 03:12:00;;;;;;;425.67;401.10;;;11.10;99.90;;;11.03;81.72;99550.19;4997718;28;20743;-75
2022/05/29 03:14:58;;;;;;;442.98;417.58;;;11.10;99.90;;;10.98;81.98;99554.63;4987101;28;20216;-75
2022/05/29 03:17:48;;;;;;;417.00;393.10;;;11.10;99.90;;;11.00;82.55;99568.72;4992017;28;20204;-74
2022/05/29 03:20:44;;;;;;;415.42;391.65;;;11.00;99.90;;;10.95;82.53;99574.94;5002984;28;20232;-74
2022/05/29 03:23:25;;;;;;;411.38;387.73;;;11.00;99.90;;;10.93;82.89;99588.19;5005303;28;20227;-74
2022/05/29 03:26:00;;;;;;;416.17;392.45;;;11.00;99.90;;;10.93;83.12;99601.41;4976281;28;20212;-74
2022/05/29 03:28:35;;;;;;;425.75;400.83;;;10.90;99.90;;;10.93;82.94;99614.63;4999413;28;20223;-74
2022/05/29 03:31:10;;;;;;;417.60;393.67;;;11.00;99.90;;;10.84;83.02;99602.34;4986815;28;20598;-74
2022/05/29 03:33:40;;;;;;;422.92;398.83;;;10.90;99.90;;;10.75;83.21;99599.75;5006183;28;20226;-74
2022/05/29 03:36:15;;;;;;;423.60;398.95;;;10.80;99.90;;;10.84;83.54;99626.13;5004369;28;20237;-74
2022/05/29 03:38:46;;;;;;;430.17;403.92;;;10.80;99.90;;;10.82;83.57;99622.63;5010148;28;20208;-75
2022/05/29 03:41:33;;;;;;;426.95;401.25;;;10.80;99.90;;;10.78;83.42;99628.81;5000551;28;20217;-76
2022/05/29 03:44:00;;;;;;;433.90;406.23;;;10.80;99.90;;;10.80;83.53;99640.25;4995215;28;20227;-75
2022/05/29 03:46:28;;;;;;;430.63;404.08;;;10.70;99.90;;;10.74;83.28;99626.19;4996970;28;20211;-75
2022/05/29 03:48:56;;;;;;;428.10;401.58;;;10.70;99.90;;;10.88;83.00;99648.16;4999252;28;20212;-75
2022/05/29 03:51:24;;;;;;;431.30;404.23;;;10.70;99.90;;;10.74;82.95;99637.66;5007355;28;20240;-75
2022/05/29 03:53:52;;;;;;;423.50;397.05;;;10.70;99.90;;;10.84;82.99;99646.41;5003391;28;20240;-74
2022/05/29 03:56:20;;;;;;;428.45;401.70;;;10.70;99.90;;;10.85;82.87;99654.34;5008553;28;20212;-74
2022/05/29 03:58:53;;;;;;;426.55;399.95;;;10.00;99.90;;;10.88;82.99;99654.34;4992071;28;20234;-79
2022/05/29 04:01:21;;;;;;;442.80;412.85;;;10.70;99.90;;;10.90;82.98;99652.56;5004174;28;20208;-74
2022/05/29 04:03:53;;;;;;;430.55;403.75;;;10.80;99.90;;;10.96;82.89;99671.94;4996119;28;20235;-75
2022/05/29 04:06:26;;;;;;;418.80;393.08;;;10.80;99.90;;;10.86;82.41;99649.94;4998169;28;20215;-74
2022/05/29 04:14:37;;;;;;;412.63;385.73;;;10.80;99.90;;;10.86;83.13;99671.97;5014118;28;20235;-75
2022/05/29 04:17:06;;;;;;;425.70;398.33;;;10.70;99.90;;;10.92;83.18;99673.72;4993917;28;20258;-79
2022/05/29 04:19:34;;;;;;;434.88;405.92;;;10.80;99.90;;;10.92;82.62;99680.78;5006715;28;20204;-74
2022/05/29 04:22:19;;;;;;;437.92;409.35;;;10.80;99.90;;;10.94;83.16;99690.47;4996051;28;20203;-74
2022/05/29 04:24:47;;;;;;;423.40;395.52;;;10.80;99.90;;;10.85;83.13;99688.72;4996338;28;20228;-74
2022/05/29 04:27:16;;;;;;;430.75;403.05;;;10.80;99.90;;;10.80;83.86;99692.28;5001679;28;20235;-74
2022/05/29 04:29:44;;;;;;;426.73;399.33;;;10.80;99.90;;;10.79;83.96;99699.34;5003391;28;20212;-74
2022/05/29 04:34:58;;;;;;;420.50;393.33;;;10.70;99.90;;;10.68;87.21;99732.88;5008766;28;20247;-78
2022/05/29 04:37:28;;;;;;;433.17;403.85;;;10.70;99.90;;;10.68;89.01;99759.31;5006578;28;20248;-74
2022/05/29 04:39:56;;;;;;;433.83;404.17;;;10.60;99.90;;;10.54;90.20;99758.47;5003621;28;20219;-74
2022/05/29 04:42:24;;;;;;;432.13;402.88;;;10.50;99.90;;;10.49;90.68;99761.09;5005176;28;20570;-74
2022/05/29 04:44:52;;;;;;;426.23;396.77;;;10.50;99.90;;;10.41;90.65;99770.81;4999457;28;20235;-75
2022/05/29 04:47:21;;;;;;;430.60;402.50;;;10.40;99.90;;;10.42;92.05;99791.06;4999026;28;20215;-74
2022/05/29 04:49:49;;;;;;;425.90;397.08;;;10.40;99.90;;;10.34;92.82;99797.22;4989427;28;20211;-74
2022/05/29 04:52:16;;;;;;;431.83;402.08;;;10.30;99.90;;;10.19;93.31;99804.22;4997359;28;20228;-74
2022/05/29 04:54:44;;;;;;;425.27;396.30;;;10.30;99.90;;;10.21;93.88;99813.06;4993412;28;20226;-74
2022/05/29 04:57:12;;;;;;;421.30;393.58;;;10.20;99.90;;;10.16;94.19;99824.47;4999486;28;20215;-75
2022/05/29 04:59:40;;;;;;;423.45;395.23;;;10.20;99.90;;;10.18;94.66;99838.56;5000724;28;20279;-74
2022/05/29 05:02:08;;;;;;;445.00;415.77;;;10.20;99.90;;;10.15;95.19;99841.22;4991144;28;20235;-76
2022/05/29 05:04:36;;;;;;;419.45;391.55;;;10.20;99.90;;;10.24;94.93;99858.00;5000482;28;20223;-74
2022/05/29 05:07:04;;;;;;;409.13;381.83;;;10.20;99.90;;;10.07;95.19;99853.53;4997686;28;20208;-74
2022/05/29 05:09:32;;;;;;;407.95;380.80;;;10.10;99.90;;;9.99;95.73;99850.88;5004472;28;20203;-74
2022/05/29 05:12:00;;;;;;;418.35;388.58;;;10.00;99.90;;;9.93;95.97;99851.75;4995790;28;20228;-77
2022/05/29 05:14:29;;;;;;;410.85;381.13;;;9.90;99.90;;;9.94;96.09;99863.19;4987285;28;20224;-75
2022/05/29 05:16:57;;;;;;;410.67;380.98;;;9.90;99.90;;;10.07;95.84;99891.41;5004605;28;20211;-75
2022/05/29 05:19:24;;;;;;;410.38;380.95;;;9.90;99.90;;;10.15;96.11;99907.25;4990766;28;20567;-76
2022/05/29 05:21:53;;;;;;;411.88;382.38;;;10.00;99.90;;;10.22;96.10;99930.22;4998161;28;20234;-77
2022/05/29 05:24:21;;;;;;;407.23;378.40;;;10.10;99.90;;;10.32;95.54;99934.66;4989154;28;20228;-80
2022/05/29 05:26:49;;;;;;;428.52;397.90;;;10.10;99.90;;;10.40;95.26;99942.59;4984328;28;20211;-76
2022/05/29 05:29:18;;;;;;;406.10;377.42;;;10.20;99.90;;;10.41;95.05;99939.97;4994117;28;20208;-77
2022/05/29 05:31:46;;;;;;;401.45;373.38;;;10.20;99.90;;;10.46;95.12;99943.50;5003767;28;20215;-77
2022/05/29 05:34:14;;;;;;;424.42;393.60;;;10.30;99.90;;;10.57;94.53;99960.28;5006137;28;20224;-76
2022/05/29 05:36:42;;;;;;;413.17;384.13;;;10.40;99.90;;;10.69;95.39;99985.84;4989489;28;20792;-78
2022/05/29 05:39:10;;;;;;;415.25;385.70;;;10.50;99.90;;;10.76;93.78;99981.44;5003020;28;20211;-76
2022/05/29 05:41:38;;;;;;;412.40;383.52;;;10.50;99.90;;;10.77;93.32;99986.75;4986880;28;20288;-76
2022/05/29 05:44:06;;;;;;;419.35;390.13;;;10.60;99.90;;;10.95;92.64;100000.84;4997394;28;20230;-76
2022/05/29 05:46:34;;;;;;;433.77;403.92;;;10.70;99.90;;;10.97;91.75;99996.44;5007931;28;20670;-76
2022/05/29 05:49:02;;;;;;;421.90;393.10;;;10.70;99.90;;;11.07;91.08;99983.22;5004172;28;20215;-76
2022/05/29 05:51:30;;;;;;;423.10;394.58;;;10.80;99.90;;;11.05;90.63;99978.81;5006633;28;20208;-80
2022/05/29 05:53:59;;;;;;;434.17;403.67;;;10.90;99.90;;;10.99;90.72;99969.13;4999360;28;20236;-76
2022/05/29 05:56:27;;;;;;;437.92;407.60;;;10.80;99.90;;;11.11;90.35;99976.16;4995614;28;20592;-76
2022/05/29 05:58:54;;;;;;;429.02;400.67;;;10.80;99.90;;;11.17;90.20;99982.34;5004983;28;20203;-75
2022/05/29 06:01:22;;;;;;;441.52;412.90;;;10.90;99.90;;;11.42;89.95;100012.31;5011021;28;20200;-76
2022/05/29 06:03:57;;;;;;;450.13;420.27;;;11.00;99.90;;;11.57;89.21;100013.16;5001102;28;20232;-76
2022/05/29 06:06:25;;;;;;;444.88;414.80;;;11.20;99.90;;;11.61;88.35;100006.97;4998494;28;20573;-77
2022/05/29 06:08:53;;;;;;;462.27;431.92;;;11.30;99.90;;;11.77;87.47;100007.00;5002341;28;20216;-76
2022/05/29 06:11:22;;;;;;;473.25;441.98;;;11.40;99.90;;;11.91;85.56;99996.38;5000497;28;20218;-78
2022/05/29 06:13:50;;;;;;;466.15;435.80;;;11.60;99.90;;;12.07;85.69;100007.78;5000940;28;20247;-78
2022/05/29 06:16:19;;;;;;;474.15;443.63;;;11.70;99.90;;;11.90;85.69;99991.97;4995120;28;20204;-76
2022/05/29 06:18:47;;;;;;;512.53;480.17;;;11.80;99.90;;;12.08;85.68;100005.13;4998120;28;20216;-76
2022/05/29 06:21:15;;;;;;;488.95;458.13;;;11.90;99.90;;;12.17;85.43;100002.44;5010129;28;20204;-77
2022/05/29 06:23:43;;;;;;;501.50;470.90;;;12.00;99.90;;;12.09;83.72;99987.47;5002850;28;20220;-77
2022/05/29 06:26:30;;;;;;;496.13;464.90;;;12.00;99.90;;;12.37;83.81;100009.44;4995976;28;20212;-79
2022/05/29 06:28:58;;;;;;;514.15;482.27;;;12.10;99.90;;;12.57;83.05;100002.25;5005574;28;20298;-77
2022/05/29 06:31:28;;;;;;;563.13;527.22;;;12.40;99.90;;;12.88;83.10;100025.91;5004654;28;20227;-77
2022/05/29 06:33:56;;;;;;;536.42;504.50;;;12.40;99.90;;;12.88;83.07;100016.19;4992839;28;20263;-77
2022/05/29 06:36:26;;;;;;;527.45;497.48;;;12.60;99.90;;;13.00;82.84;100017.88;4990516;28;20203;-77
2022/05/29 06:38:57;;;;;;;540.35;509.48;;;12.70;99.90;;;13.01;83.28;100024.97;5004409;28;20807;-77
2022/05/29 06:41:26;;;;;;;537.33;507.17;;;12.80;99.90;;;12.45;83.36;99973.13;5004970;28;20212;-76
2022/05/29 06:43:54;;;;;;;553.45;522.47;;;12.70;99.90;;;12.51;83.59;99989.00;5001542;28;20235;-77
2022/05/29 06:46:22;;;;;;;544.95;514.58;;;12.60;99.90;;;12.71;84.39;99996.84;4997651;28;20217;-77
2022/05/29 06:48:51;;;;;;;560.85;529.28;;;12.60;99.90;;;12.85;83.21;99992.31;5002475;28;20235;-77
2022/05/29 06:51:22;;;;;;;560.20;528.45;;;12.70;99.90;;;12.96;83.27;100008.16;4992558;28;20207;-76
2022/05/29 06:53:53;;;;;;;591.70;557.95;;;12.80;99.90;;;12.91;83.58;100002.00;5012297;28;20239;-77
2022/05/29 06:56:22;;;;;;;567.70;536.75;;;12.90;99.90;;;12.78;83.01;99982.66;5009873;28;20208;-78
2022/05/29 06:58:50;;;;;;;582.88;551.10;;;12.90;99.90;;;13.16;83.05;100014.25;5002583;28;20212;-77
2022/05/29 07:07:14;;;;;;;587.45;554.63;;;13.10;99.90;;;13.05;82.52;100011.66;4996919;28;20683;-74
2022/05/29 07:09:42;;;;;;;589.15;557.67;;;13.10;99.90;;;12.97;81.56;99992.22;4996786;28;20204;-74
2022/05/29 07:12:26;;;;;;;590.25;558.70;;;13.10;99.90;;;12.89;80.82;99966.66;4998559;28;20207;-75
2022/05/29 07:15:03;;;;;;;600.60;567.80;;;13.00;99.90;;;12.88;82.00;99970.19;4992009;28;20236;-74
2022/05/29 07:17:32;;;;;;;626.22;591.97;;;13.10;99.90;;;12.85;82.70;99981.72;5002200;28;20215;-75
2022/05/29 07:20:00;;;;;;;605.78;573.78;;;13.00;99.90;;;12.77;82.01;99970.28;5011721;28;20204;-75
2022/05/29 07:22:32;;;;;;;596.63;565.45;;;13.00;99.90;;;12.82;82.43;99981.72;4992187;28;20216;-76
2022/05/29 07:25:02;;;;;;;621.75;587.60;;;12.90;99.90;;;12.85;81.51;99964.91;5003476;28;20228;-76
2022/05/29 07:27:30;;;;;;;607.28;575.03;;;13.00;99.90;;;12.75;82.19;99972.94;5006831;28;20216;-75
2022/05/29 07:29:57;;;;;;;604.30;572.88;;;12.90;99.90;;;12.62;81.08;99946.50;4989469;28;20204;-75
2022/05/29 07:32:25;;;;;;;607.95;575.13;;;12.90;99.90;;;12.83;80.32;99947.22;5009719;28;20200;-75
2022/05/29 07:34:53;;;;;;;605.17;572.45;;;12.90;99.90;;;13.23;80.90;99994.75;5003337;28;20243;-77
2022/05/29 07:37:21;;;;;;;613.95;580.50;;;13.00;99.90;;;13.25;81.05;100006.22;5003369;28;20270;-77
2022/05/29 07:39:51;;;;;;;607.25;574.05;;;13.10;99.90;;;13.46;79.11;100005.16;5004619;28;20220;-76
2022/05/29 07:45:09;;;;;;;634.28;598.08;;;13.40;99.90;;;13.39;77.97;99968.91;5003947;28;20212;-75
2022/05/29 07:47:43;;;;;;;620.20;587.05;;;13.50;99.90;;;13.66;77.69;99976.59;4994482;28;20227;-75
2022/05/29 07:50:17;;;;;;;615.50;581.90;;;13.50;99.90;;;14.26;77.34;100031.72;5003428;28;20204;-75
2022/05/29 07:52:45;;;;;;;638.70;602.83;;;14.10;99.90;;;14.33;76.56;100002.41;5002572;28;20211;-75
2022/05/29 07:55:14;;;;;;;629.83;596.05;;;14.10;99.90;;;14.81;76.83;100052.34;5000196;28;20204;-79
2022/05/29 07:57:41;;;;;;;631.25;599.03;;;14.40;99.90;;;15.07;75.71;100022.66;5007481;28;20242;-78
2022/05/29 08:00:13;;;;;;;639.13;605.78;;;14.70;99.90;;;14.98;75.16;99989.97;5008619;28;20219;-77
2022/05/29 08:02:43;;;;;;;654.17;619.95;;;18.00;99.90;;;14.68;74.17;99948.72;5002142;28;20672;-79
2022/05/29 08:05:14;;;;;;;659.38;626.40;;;14.90;99.90;;;14.98;74.91;99965.09;4989583;28;20219;-77
2022/05/29 08:07:43;;;;;;;669.55;633.55;;;14.90;99.90;;;15.24;73.66;99973.53;4989317;28;20208;-77
2022/05/29 08:10:14;;;;;;;671.80;638.10;;;15.20;99.90;;;15.02;73.67;99933.06;5009391;28;20582;-78
2022/05/29 08:12:42;;;;;;;669.35;637.00;;;15.10;99.90;;;15.29;74.29;99953.03;5009817;28;20215;-77
2022/05/29 08:15:11;;;;;;;687.72;653.40;;;15.30;99.90;;;15.41;73.33;99940.38;5005442;28;20239;-76
2022/05/29 08:17:40;;;;;;;677.15;643.85;;;15.70;99.90;;;15.12;73.66;99909.84;4994000;28;20215;-77
2022/05/29 08:20:11;;;;;;;721.40;685.80;;;15.70;99.90;;;15.22;74.16;99923.88;5010749;28;20211;-79
2022/05/29 08:22:39;;;;;;;722.90;684.97;;;15.90;99.90;;;14.68;73.48;99855.56;5004518;28;20215;-77
2022/05/29 08:30:51;;;;;;;711.25;674.60;;;15.40;99.90;;;14.71;74.83;99870.63;5002649;28;20211;-78
2022/05/29 08:33:29;;;;;;;736.83;698.60;;;15.40;99.90;;;15.32;74.68;99925.44;5005101;28;20258;-76
2022/05/29 08:36:02;;;;;;;746.00;708.38;;;15.60;99.90;;;15.41;74.14;99927.94;4982932;28;20208;-77
2022/05/29 08:38:32;;;;;;;737.95;700.50;;;15.90;99.90;;;15.10;74.08;99882.34;4996477;28;20208;-77
2022/05/29 08:41:05;;;;;;;730.10;693.28;;;15.70;99.90;;;15.31;74.10;99900.59;5011018;28;20310;-77
2022/05/29 08:43:59;;;;;;;758.55;720.13;;;15.70;99.90;;;15.54;73.42;99908.16;5010275;28;20751;-76
2022/05/29 08:46:49;;;;;;;757.85;719.97;;;16.00;99.90;;;15.40;72.50;99869.34;5013539;28;20203;-77
2022/05/29 08:49:23;;;;;;;757.75;720.25;;;16.20;99.90;;;15.23;72.86;99848.38;5000923;28;20594;-77
2022/05/29 08:52:05;;;;;;;787.60;745.00;;;16.00;99.90;;;15.12;72.48;99839.72;4990575;28;20241;-77
2022/05/29 08:54:51;;;;;;;765.05;727.45;;;16.00;99.90;;;14.60;72.42;99756.38;4984058;28;20234;-77
2022/05/29 08:57:46;;;;;;;774.63;733.97;;;15.70;99.90;;;14.64;72.61;99771.38;4994009;28;20200;-78
2022/05/29 09:00:44;;;;;;;764.58;725.55;;;15.30;99.90;;;15.16;72.89;99813.00;4991190;28;20208;-77
2022/05/29 09:03:52;;;;;;;756.70;718.25;;;15.30;99.90;;;15.84;73.10;99911.16;4996091;28;20231;-78
2022/05/29 09:06:35;;;;;;;763.92;724.42;;;15.50;99.90;;;15.10;69.82;99750.97;4996422;28;20207;-77
2022/05/29 09:09:34;;;;;;;763.60;723.97;;;15.50;99.90;;;15.58;72.59;99837.03;4988603;28;20216;-77
2022/05/29 09:12:08;;;;;;;757.00;716.90;;;15.60;99.90;;;15.23;69.84;99764.00;4973740;28;20215;-79
2022/05/29 09:14:59;;;;;;;771.10;731.05;;;15.70;99.90;;;15.65;70.39;99791.59;4992897;28;20240;-77
2022/05/29 09:17:53;;;;;;;775.03;734.55;;;16.00;99.90;;;15.59;70.44;99788.16;4989678;28;20209;-78
2022/05/29 09:20:31;;;;;;;774.65;734.78;;;16.00;99.90;;;15.61;69.34;99762.38;5000666;28;20206;-77
2022/05/29 09:23:02;;;;;;;761.53;721.78;;;16.00;99.90;;;15.27;68.73;99704.44;4996788;28;20212;-78
2022/05/29 09:25:44;;;;;;;768.20;729.10;;;15.90;99.90;;;15.65;70.14;99764.06;4994578;28;20696;-77
2022/05/29 09:28:25;;;;;;;780.85;738.83;;;16.10;99.90;;;15.57;71.05;99761.53;4982602;28;20211;-78
2022/05/29 09:31:15;;;;;;;778.65;737.45;;;16.30;99.90;;;14.98;67.92;99635.84;4982505;28;20212;-77
2022/05/29 09:33:44;;;;;;;779.85;737.38;;;15.90;99.90;;;15.29;67.04;99644.03;4994671;28;20223;-78
2022/05/29 09:37:02;;;;;;;781.50;740.08;;;15.90;99.90;;;15.05;66.78;99620.59;4994487;28;20227;-80
2022/05/29 09:39:43;;;;;;;778.95;736.85;;;15.70;99.90;;;15.33;67.13;99648.38;4987006;28;20208;-80
2022/05/29 09:42:31;;;;;;;791.95;747.70;;;15.50;99.90;;;16.04;67.80;99727.59;4984598;28;20215;-76
2022/05/29 09:45:33;;;;;;;808.83;763.88;;;15.80;99.90;;;16.58;65.46;99725.31;4992813;28;20223;-79
2022/05/29 09:50:58;;;;;;;808.65;765.25;;;16.60;99.90;;;16.20;63.53;99603.59;4988927;28;20211;-78
2022/05/29 09:53:34;;;;;;;804.53;762.38;;;16.60;99.90;;;16.30;62.08;99575.75;5001998;28;20601;-77
2022/05/29 09:56:05;;;;;;;816.22;773.78;;;16.60;99.90;;;17.07;63.13;99651.00;4987705;28;20231;-80
2022/05/29 09:58:55;;;;;;;821.63;777.15;;;16.90;99.90;;;16.80;63.93;99623.28;4999312;28;20208;-79
2022/05/29 10:01:38;;;;;;;820.65;777.53;;;17.00;99.90;;;16.48;62.97;99547.66;4988354;28;20204;-77
2022/05/29 10:04:30;;;;;;;835.70;790.95;;;16.90;99.90;;;16.41;64.42;99561.22;4974025;28;20240;-77
2022/05/29 10:06:59;;;;;;;836.47;791.83;;;16.80;99.90;;;17.48;63.31;99655.09;4995714;28;20685;-76
2022/05/29 10:09:27;;;;;;;866.15;819.67;;;17.10;99.90;;;18.02;62.30;99655.13;4990166;28;20208;-77
2022/05/29 10:12:18;;;;;;;886.95;837.40;;;18.20;99.90;;;18.47;60.13;99617.00;5002384;28;20207;-76
2022/05/29 10:14:46;;;;;;;893.90;839.63;;;;;;;18.26;59.98;99537.47;5002150;28;20225;-77
2022/05/29 10:17:34;;;;;;;914.33;855.65;;;18.80;99.90;;;18.23;60.05;99515.25;4998649;28;20208;-77
2022/05/29 10:20:38;;;;;;;919.10;861.75;;;18.90;99.90;;;18.09;60.18;99464.03;4997254;28;20219;-77
2022/05/29 10:23:29;;;;;;;930.50;871.53;;;18.80;99.90;;;17.96;62.51;99486.81;4991214;28;20225;-80
2022/05/29 10:26:24;;;;;;;941.67;883.00;;;18.80;99.90;;;17.83;61.23;99432.88;4994860;28;20223;-77
2022/05/29 10:28:52;;;;;;;950.08;893.65;;;;;;;17.72;59.12;99381.59;5002227;28;20207;-77
2022/05/29 10:31:35;;;;;;;969.30;912.35;;;18.70;99.90;;;17.75;59.95;99377.94;4996893;28;20214;-77
2022/05/29 10:34:08;;;;;;;969.25;913.38;;;18.80;99.90;;;18.06;60.45;99428.47;4986106;28;20238;-77
2022/05/29 10:36:39;;;;;;;979.53;920.70;;;19.00;99.90;;;18.47;60.79;99480.47;4984561;28;20687;-78
2022/05/29 10:39:14;;;;;;;985.17;925.85;;;19.50;99.90;;;18.80;59.20;99457.75;4990535;28;20200;-77
2022/05/29 10:41:44;;;;;;;992.50;935.25;;;19.20;99.90;;;18.36;56.94;99317.59;5001466;28;20212;-79
2022/05/29 10:44:46;;;;;;;1076.93;999.90;;;19.80;99.90;;;19.30;55.76;99411.03;5006424;28;20481;-76
2022/05/29 10:47:28;;;;;;;964.30;911.03;;;20.00;99.90;;;18.81;54.02;99276.50;4988765;28;20226;-77
2022/05/29 10:50:05;;;;;;;949.00;897.30;;;19.80;99.90;;;17.96;53.64;99114.13;4983050;28;20207;-77
2022/05/29 10:52:56;;;;;;;902.95;853.83;;;19.60;99.90;;;18.16;55.81;99194.41;5006519;28;20220;-77
2022/05/29 10:55:54;;;;;;;878.42;830.22;;;19.20;99.90;;;17.74;56.69;99133.75;5003312;28;20246;-77